sensor_id;sensor_type;location;lat;lon;timestamp;P1;durP1;ratioP1;P2;durP2;ratioP2
81298;SDS011;70766;53.170;18.160;2024-02-23T00:03:00;18.20;;;10.10;;
81298;SDS011;70766;53.170;18.160;2024-02-23T00:39:09;19.10;;;9.70;;
81298;SDS011;70766;53.170;18.160;2024-02-23T00:43:11;20.50;;;10.30;;
81298;SDS011;70766;53.170;18.160;2024-02-23T00:56:52;20.40;;;10.50;;
81298;SDS011;70766;53.170;18.160;2024-02-23T01:09:25;24.30;;;10.50;;
81298;SDS011;70766;53.170;18.160;2024-02-23T01:18:23;18.60;;;10.20;;
81298;SDS011;70766;53.170;18.160;2024-02-23T01:35:14;17.30;;;9.50;;
81298;SDS011;70766;53.170;18.160;2024-02-23T01:39:25;18.90;;;9.40;;
81298;SDS011;70766;53.170;18.160;2024-02-23T01:44:09;19.80;;;10.10;;
81298;SDS011;70766;53.170;18.160;2024-02-23T01:48:45;18.90;;;9.20;;
81298;SDS011;70766;53.170;18.160;2024-02-23T01:57:11;37.20;;;13.20;;
81298;SDS011;70766;53.170;18.160;2024-02-23T02:05:37;18.30;;;9.70;;
81298;SDS011;70766;53.170;18.160;2024-02-23T02:31:27;16.80;;;10.20;;
81298;SDS011;70766;53.170;18.160;2024-02-23T02:39:53;18.50;;;9.70;;
81298;SDS011;70766;53.170;18.160;2024-02-23T02:47:31;26.80;;;10.60;;
81298;SDS011;70766;53.170;18.160;2024-02-23T02:51:38;18.40;;;9.50;;
81298;SDS011;70766;53.170;18.160;2024-02-23T03:09:57;20.70;;;9.50;;
81298;SDS011;70766;53.170;18.160;2024-02-23T03:22:52;14.40;;;7.50;;
81298;SDS011;70766;53.170;18.160;2024-02-23T03:26:40;17.80;;;8.50;;
81298;SDS011;70766;53.170;18.160;2024-02-23T03:30:48;19.50;;;8.30;;
81298;SDS011;70766;53.170;18.160;2024-02-23T03:44:12;19.40;;;8.30;;
81298;SDS011;70766;53.170;18.160;2024-02-23T03:48:14;13.50;;;7.50;;
81298;SDS011;70766;53.170;18.160;2024-02-23T03:52:42;12.70;;;6.60;;
81298;SDS011;70766;53.170;18.160;2024-02-23T04:18:15;13.00;;;6.30;;
81298;SDS011;70766;53.170;18.160;2024-02-23T04:35:22;10.50;;;6.40;;
81298;SDS011;70766;53.170;18.160;2024-02-23T04:39:57;9.70;;;5.90;;
81298;SDS011;70766;53.170;18.160;2024-02-23T04:58:01;10.00;;;5.30;;
81298;SDS011;70766;53.170;18.160;2024-02-23T05:01:21;13.40;;;6.30;;
81298;SDS011;70766;53.170;18.160;2024-02-23T05:27:21;33.50;;;17.30;;
81298;SDS011;70766;53.170;18.160;2024-02-23T05:40:48;82.20;;;22.10;;
81298;SDS011;70766;53.170;18.160;2024-02-23T05:48:43;38.60;;;11.40;;
81298;SDS011;70766;53.170;18.160;2024-02-23T05:53:04;85.90;;;22.50;;
81298;SDS011;70766;53.170;18.160;2024-02-23T06:01:30;66.70;;;17.30;;
81298;SDS011;70766;53.170;18.160;2024-02-23T06:05:28;15.70;;;4.60;;
81298;SDS011;70766;53.170;18.160;2024-02-23T07:28:18;7.00;;;1.70;;
81298;SDS011;70766;53.170;18.160;2024-02-23T07:33:08;5.50;;;1.80;;
81298;SDS011;70766;53.170;18.160;2024-02-23T07:53:47;5.40;;;1.80;;
81298;SDS011;70766;53.170;18.160;2024-02-23T08:08:04;2.60;;;0.90;;
81298;SDS011;70766;53.170;18.160;2024-02-23T09:05:57;3.80;;;0.70;;
81298;SDS011;70766;53.170;18.160;2024-02-23T10:07:04;18.90;;;5.50;;
81298;SDS011;70766;53.170;18.160;2024-02-23T11:40:41;0.90;;;0.60;;
81298;SDS011;70766;53.170;18.160;2024-02-23T11:43:12;1.40;;;0.70;;
81298;SDS011;70766;53.170;18.160;2024-02-23T11:45:46;1.40;;;0.60;;
81298;SDS011;70766;53.170;18.160;2024-02-23T11:48:16;1.70;;;0.50;;
81298;SDS011;70766;53.170;18.160;2024-02-23T11:50:47;1.60;;;0.80;;
81298;SDS011;70766;53.170;18.160;2024-02-23T11:53:16;2.50;;;0.80;;
81298;SDS011;70766;53.170;18.160;2024-02-23T11:55:48;1.80;;;0.70;;
81298;SDS011;70766;53.170;18.160;2024-02-23T11:58:17;2.00;;;0.60;;
81298;SDS011;70766;53.170;18.160;2024-02-23T12:00:46;2.90;;;0.60;;
81298;SDS011;70766;53.170;18.160;2024-02-23T12:03:14;4.60;;;1.30;;
81298;SDS011;70766;53.170;18.160;2024-02-23T12:05:43;1.30;;;0.70;;
81298;SDS011;70766;53.170;18.160;2024-02-23T12:08:11;2.60;;;1.00;;
81298;SDS011;70766;53.170;18.160;2024-02-23T12:10:40;2.60;;;1.10;;
81298;SDS011;70766;53.170;18.160;2024-02-23T12:13:09;2.20;;;0.90;;
81298;SDS011;70766;53.170;18.160;2024-02-23T12:15:37;1.30;;;0.70;;
81298;SDS011;70766;53.170;18.160;2024-02-23T12:18:07;2.50;;;0.90;;
81298;SDS011;70766;53.170;18.160;2024-02-23T12:20:39;1.80;;;0.80;;
81298;SDS011;70766;53.170;18.160;2024-02-23T12:23:08;3.60;;;1.20;;
81298;SDS011;70766;53.170;18.160;2024-02-23T12:25:38;1.60;;;0.80;;
81298;SDS011;70766;53.170;18.160;2024-02-23T12:28:09;3.50;;;0.80;;
81298;SDS011;70766;53.170;18.160;2024-02-23T12:30:38;1.50;;;0.60;;
81298;SDS011;70766;53.170;18.160;2024-02-23T12:33:07;2.50;;;0.80;;
81298;SDS011;70766;53.170;18.160;2024-02-23T12:35:36;2.80;;;1.00;;
81298;SDS011;70766;53.170;18.160;2024-02-23T12:38:05;5.20;;;0.80;;
81298;SDS011;70766;53.170;18.160;2024-02-23T12:40:34;2.50;;;0.90;;
81298;SDS011;70766;53.170;18.160;2024-02-23T12:43:02;2.90;;;0.80;;
81298;SDS011;70766;53.170;18.160;2024-02-23T12:45:30;2.10;;;0.70;;
81298;SDS011;70766;53.170;18.160;2024-02-23T12:47:58;2.30;;;0.80;;
81298;SDS011;70766;53.170;18.160;2024-02-23T12:50:29;1.70;;;0.80;;
81298;SDS011;70766;53.170;18.160;2024-02-23T12:52:59;2.40;;;0.90;;
81298;SDS011;70766;53.170;18.160;2024-02-23T12:55:29;2.50;;;1.00;;
81298;SDS011;70766;53.170;18.160;2024-02-23T12:57:57;2.40;;;0.80;;
81298;SDS011;70766;53.170;18.160;2024-02-23T13:00:25;2.50;;;0.90;;
81298;SDS011;70766;53.170;18.160;2024-02-23T13:02:54;1.90;;;0.80;;
81298;SDS011;70766;53.170;18.160;2024-02-23T13:05:23;3.30;;;1.10;;
81298;SDS011;70766;53.170;18.160;2024-02-23T13:07:51;2.20;;;1.00;;
81298;SDS011;70766;53.170;18.160;2024-02-23T13:10:19;4.90;;;1.10;;
81298;SDS011;70766;53.170;18.160;2024-02-23T13:12:48;3.40;;;1.00;;
81298;SDS011;70766;53.170;18.160;2024-02-23T13:15:17;2.90;;;1.10;;
81298;SDS011;70766;53.170;18.160;2024-02-23T13:17:49;2.40;;;1.00;;
81298;SDS011;70766;53.170;18.160;2024-02-23T13:20:17;3.10;;;1.10;;
81298;SDS011;70766;53.170;18.160;2024-02-23T13:22:45;1.70;;;0.90;;
81298;SDS011;70766;53.170;18.160;2024-02-23T13:25:14;1.80;;;0.70;;
81298;SDS011;70766;53.170;18.160;2024-02-23T13:27:42;2.30;;;0.70;;
81298;SDS011;70766;53.170;18.160;2024-02-23T13:30:10;4.10;;;0.60;;
81298;SDS011;70766;53.170;18.160;2024-02-23T13:32:40;1.20;;;0.60;;
81298;SDS011;70766;53.170;18.160;2024-02-23T13:35:10;2.40;;;0.80;;
81298;SDS011;70766;53.170;18.160;2024-02-23T13:37:41;2.60;;;1.30;;
81298;SDS011;70766;53.170;18.160;2024-02-23T13:40:11;4.40;;;1.60;;
81298;SDS011;70766;53.170;18.160;2024-02-23T13:42:39;2.60;;;1.00;;
81298;SDS011;70766;53.170;18.160;2024-02-23T13:45:08;3.50;;;1.30;;
81298;SDS011;70766;53.170;18.160;2024-02-23T13:47:36;2.10;;;1.00;;
81298;SDS011;70766;53.170;18.160;2024-02-23T13:50:05;1.40;;;0.80;;
81298;SDS011;70766;53.170;18.160;2024-02-23T13:52:36;3.00;;;1.00;;
81298;SDS011;70766;53.170;18.160;2024-02-23T13:55:06;2.20;;;0.80;;
81298;SDS011;70766;53.170;18.160;2024-02-23T13:57:35;1.40;;;0.70;;
81298;SDS011;70766;53.170;18.160;2024-02-23T14:00:04;1.60;;;0.90;;
81298;SDS011;70766;53.170;18.160;2024-02-23T14:02:38;2.40;;;0.70;;
81298;SDS011;70766;53.170;18.160;2024-02-23T14:05:10;2.10;;;0.70;;
81298;SDS011;70766;53.170;18.160;2024-02-23T14:07:38;3.20;;;0.60;;
81298;SDS011;70766;53.170;18.160;2024-02-23T14:10:07;3.20;;;0.80;;
81298;SDS011;70766;53.170;18.160;2024-02-23T14:12:35;3.40;;;1.10;;
81298;SDS011;70766;53.170;18.160;2024-02-23T14:15:04;2.20;;;0.80;;
81298;SDS011;70766;53.170;18.160;2024-02-23T14:17:33;1.90;;;0.70;;
81298;SDS011;70766;53.170;18.160;2024-02-23T14:20:03;4.00;;;0.70;;
81298;SDS011;70766;53.170;18.160;2024-02-23T14:22:31;1.10;;;0.60;;
81298;SDS011;70766;53.170;18.160;2024-02-23T14:25:00;3.00;;;1.10;;
81298;SDS011;70766;53.170;18.160;2024-02-23T14:27:28;4.90;;;0.70;;
81298;SDS011;70766;53.170;18.160;2024-02-23T14:29:58;4.50;;;1.00;;
81298;SDS011;70766;53.170;18.160;2024-02-23T14:32:27;1.40;;;0.70;;
81298;SDS011;70766;53.170;18.160;2024-02-23T14:34:57;2.10;;;0.90;;
81298;SDS011;70766;53.170;18.160;2024-02-23T14:37:25;3.40;;;0.90;;
81298;SDS011;70766;53.170;18.160;2024-02-23T14:39:54;2.10;;;0.90;;
81298;SDS011;70766;53.170;18.160;2024-02-23T14:42:24;2.60;;;1.00;;
81298;SDS011;70766;53.170;18.160;2024-02-23T14:44:54;3.40;;;0.70;;
81298;SDS011;70766;53.170;18.160;2024-02-23T14:47:24;2.50;;;0.90;;
81298;SDS011;70766;53.170;18.160;2024-02-23T14:50:02;2.70;;;0.80;;
81298;SDS011;70766;53.170;18.160;2024-02-23T14:52:30;4.30;;;0.80;;
81298;SDS011;70766;53.170;18.160;2024-02-23T14:54:59;2.80;;;0.80;;
81298;SDS011;70766;53.170;18.160;2024-02-23T14:57:27;4.50;;;1.00;;
81298;SDS011;70766;53.170;18.160;2024-02-23T14:59:55;4.30;;;1.20;;
81298;SDS011;70766;53.170;18.160;2024-02-23T15:02:24;3.70;;;0.80;;
81298;SDS011;70766;53.170;18.160;2024-02-23T15:04:52;4.00;;;0.90;;
81298;SDS011;70766;53.170;18.160;2024-02-23T15:07:20;2.90;;;1.10;;
81298;SDS011;70766;53.170;18.160;2024-02-23T15:09:51;3.90;;;0.80;;
81298;SDS011;70766;53.170;18.160;2024-02-23T15:12:22;2.80;;;0.70;;
81298;SDS011;70766;53.170;18.160;2024-02-23T15:14:53;2.20;;;0.90;;
81298;SDS011;70766;53.170;18.160;2024-02-23T15:17:25;3.00;;;0.80;;
81298;SDS011;70766;53.170;18.160;2024-02-23T15:19:58;3.20;;;1.00;;
81298;SDS011;70766;53.170;18.160;2024-02-23T15:22:27;4.90;;;1.20;;
81298;SDS011;70766;53.170;18.160;2024-02-23T15:24:57;3.30;;;1.00;;
81298;SDS011;70766;53.170;18.160;2024-02-23T15:27:28;4.80;;;1.20;;
81298;SDS011;70766;53.170;18.160;2024-02-23T15:29:56;2.90;;;0.90;;
81298;SDS011;70766;53.170;18.160;2024-02-23T15:32:24;5.00;;;1.20;;
81298;SDS011;70766;53.170;18.160;2024-02-23T15:34:53;3.80;;;0.90;;
81298;SDS011;70766;53.170;18.160;2024-02-23T15:37:21;2.60;;;1.40;;
81298;SDS011;70766;53.170;18.160;2024-02-23T15:39:49;5.10;;;1.60;;
81298;SDS011;70766;53.170;18.160;2024-02-23T15:42:17;6.40;;;1.30;;
81298;SDS011;70766;53.170;18.160;2024-02-23T15:44:48;5.90;;;1.80;;
81298;SDS011;70766;53.170;18.160;2024-02-23T15:47:16;4.20;;;1.50;;
81298;SDS011;70766;53.170;18.160;2024-02-23T15:49:44;9.30;;;2.20;;
81298;SDS011;70766;53.170;18.160;2024-02-23T15:52:33;7.70;;;2.10;;
81298;SDS011;70766;53.170;18.160;2024-02-23T15:55:07;6.70;;;2.00;;
81298;SDS011;70766;53.170;18.160;2024-02-23T15:57:40;4.60;;;1.80;;
81298;SDS011;70766;53.170;18.160;2024-02-23T16:00:09;5.50;;;1.80;;
81298;SDS011;70766;53.170;18.160;2024-02-23T16:02:39;4.50;;;1.80;;
81298;SDS011;70766;53.170;18.160;2024-02-23T16:05:08;5.80;;;1.90;;
81298;SDS011;70766;53.170;18.160;2024-02-23T16:07:36;5.40;;;2.10;;
81298;SDS011;70766;53.170;18.160;2024-02-23T16:10:04;5.10;;;2.10;;
81298;SDS011;70766;53.170;18.160;2024-02-23T16:12:33;4.80;;;1.90;;
81298;SDS011;70766;53.170;18.160;2024-02-23T16:15:01;8.20;;;2.30;;
81298;SDS011;70766;53.170;18.160;2024-02-23T16:17:31;5.10;;;2.00;;
81298;SDS011;70766;53.170;18.160;2024-02-23T16:20:07;7.60;;;2.40;;
81298;SDS011;70766;53.170;18.160;2024-02-23T16:22:36;6.50;;;2.60;;
81298;SDS011;70766;53.170;18.160;2024-02-23T16:25:04;6.70;;;2.40;;
81298;SDS011;70766;53.170;18.160;2024-02-23T16:27:33;10.40;;;4.10;;
81298;SDS011;70766;53.170;18.160;2024-02-23T16:30:01;12.60;;;5.40;;
81298;SDS011;70766;53.170;18.160;2024-02-23T16:32:30;10.80;;;4.20;;
81298;SDS011;70766;53.170;18.160;2024-02-23T16:34:59;11.10;;;5.10;;
81298;SDS011;70766;53.170;18.160;2024-02-23T16:37:28;14.30;;;6.90;;
81298;SDS011;70766;53.170;18.160;2024-02-23T16:39:57;15.30;;;6.90;;
81298;SDS011;70766;53.170;18.160;2024-02-23T16:42:26;18.00;;;8.40;;
81298;SDS011;70766;53.170;18.160;2024-02-23T16:44:54;15.20;;;7.00;;
81298;SDS011;70766;53.170;18.160;2024-02-23T16:47:22;15.00;;;6.70;;
81298;SDS011;70766;53.170;18.160;2024-02-23T16:49:51;14.70;;;6.90;;
81298;SDS011;70766;53.170;18.160;2024-02-23T16:52:19;13.00;;;5.80;;
81298;SDS011;70766;53.170;18.160;2024-02-23T16:54:47;12.50;;;5.80;;
81298;SDS011;70766;53.170;18.160;2024-02-23T16:57:15;11.10;;;5.60;;
81298;SDS011;70766;53.170;18.160;2024-02-23T16:59:44;15.80;;;6.40;;
81298;SDS011;70766;53.170;18.160;2024-02-23T17:02:12;11.90;;;5.60;;
81298;SDS011;70766;53.170;18.160;2024-02-23T17:04:41;17.00;;;6.40;;
81298;SDS011;70766;53.170;18.160;2024-02-23T17:07:09;15.30;;;5.50;;
81298;SDS011;70766;53.170;18.160;2024-02-23T17:09:37;14.70;;;5.50;;
81298;SDS011;70766;53.170;18.160;2024-02-23T17:12:06;13.80;;;5.50;;
81298;SDS011;70766;53.170;18.160;2024-02-23T17:14:34;12.80;;;5.70;;
81298;SDS011;70766;53.170;18.160;2024-02-23T17:17:03;17.10;;;6.80;;
81298;SDS011;70766;53.170;18.160;2024-02-23T17:19:32;17.40;;;6.40;;
81298;SDS011;70766;53.170;18.160;2024-02-23T17:22:00;16.30;;;6.40;;
81298;SDS011;70766;53.170;18.160;2024-02-23T17:24:30;16.10;;;6.50;;
81298;SDS011;70766;53.170;18.160;2024-02-23T17:26:58;16.60;;;6.30;;
81298;SDS011;70766;53.170;18.160;2024-02-23T17:29:27;16.70;;;6.20;;
81298;SDS011;70766;53.170;18.160;2024-02-23T17:31:55;14.70;;;6.30;;
81298;SDS011;70766;53.170;18.160;2024-02-23T17:34:24;16.30;;;6.20;;
81298;SDS011;70766;53.170;18.160;2024-02-23T17:36:54;22.10;;;7.40;;
81298;SDS011;70766;53.170;18.160;2024-02-23T17:39:22;16.50;;;6.70;;
81298;SDS011;70766;53.170;18.160;2024-02-23T17:41:51;19.80;;;6.70;;
81298;SDS011;70766;53.170;18.160;2024-02-23T17:44:21;19.00;;;7.10;;
81298;SDS011;70766;53.170;18.160;2024-02-23T17:46:49;17.20;;;7.30;;
81298;SDS011;70766;53.170;18.160;2024-02-23T17:49:18;16.80;;;6.80;;
81298;SDS011;70766;53.170;18.160;2024-02-23T17:51:47;21.00;;;7.30;;
81298;SDS011;70766;53.170;18.160;2024-02-23T17:54:15;19.50;;;7.80;;
81298;SDS011;70766;53.170;18.160;2024-02-23T17:56:43;17.30;;;7.60;;
81298;SDS011;70766;53.170;18.160;2024-02-23T17:59:12;19.00;;;8.50;;
81298;SDS011;70766;53.170;18.160;2024-02-23T18:01:40;23.70;;;9.80;;
81298;SDS011;70766;53.170;18.160;2024-02-23T18:04:08;22.40;;;10.80;;
81298;SDS011;70766;53.170;18.160;2024-02-23T18:06:39;22.90;;;9.90;;
81298;SDS011;70766;53.170;18.160;2024-02-23T18:09:07;20.80;;;9.20;;
81298;SDS011;70766;53.170;18.160;2024-02-23T18:11:36;18.60;;;8.30;;
81298;SDS011;70766;53.170;18.160;2024-02-23T18:14:06;20.80;;;7.90;;
81298;SDS011;70766;53.170;18.160;2024-02-23T18:16:38;17.30;;;6.90;;
81298;SDS011;70766;53.170;18.160;2024-02-23T18:19:07;19.10;;;7.20;;
81298;SDS011;70766;53.170;18.160;2024-02-23T18:21:35;18.20;;;7.30;;
81298;SDS011;70766;53.170;18.160;2024-02-23T18:24:04;20.30;;;7.70;;
81298;SDS011;70766;53.170;18.160;2024-02-23T18:26:35;14.50;;;6.20;;
81298;SDS011;70766;53.170;18.160;2024-02-23T18:29:07;19.00;;;7.70;;
81298;SDS011;70766;53.170;18.160;2024-02-23T18:31:38;19.10;;;7.60;;
81298;SDS011;70766;53.170;18.160;2024-02-23T18:34:06;16.60;;;6.70;;
81298;SDS011;70766;53.170;18.160;2024-02-23T18:36:35;19.00;;;8.30;;
81298;SDS011;70766;53.170;18.160;2024-02-23T18:39:03;18.60;;;7.60;;
81298;SDS011;70766;53.170;18.160;2024-02-23T18:41:31;15.20;;;6.90;;
81298;SDS011;70766;53.170;18.160;2024-02-23T18:44:02;19.30;;;7.40;;
81298;SDS011;70766;53.170;18.160;2024-02-23T18:46:32;13.70;;;6.40;;
81298;SDS011;70766;53.170;18.160;2024-02-23T18:49:00;14.50;;;6.30;;
81298;SDS011;70766;53.170;18.160;2024-02-23T18:51:29;16.00;;;7.50;;
81298;SDS011;70766;53.170;18.160;2024-02-23T18:53:59;14.60;;;6.50;;
81298;SDS011;70766;53.170;18.160;2024-02-23T18:56:28;17.70;;;8.00;;
81298;SDS011;70766;53.170;18.160;2024-02-23T18:58:57;17.60;;;8.30;;
81298;SDS011;70766;53.170;18.160;2024-02-23T19:01:26;16.90;;;7.30;;
81298;SDS011;70766;53.170;18.160;2024-02-23T19:03:54;17.50;;;8.00;;
81298;SDS011;70766;53.170;18.160;2024-02-23T19:06:23;15.40;;;5.80;;
81298;SDS011;70766;53.170;18.160;2024-02-23T19:08:51;13.90;;;5.40;;
81298;SDS011;70766;53.170;18.160;2024-02-23T19:11:20;15.10;;;5.60;;
81298;SDS011;70766;53.170;18.160;2024-02-23T19:13:48;16.30;;;6.40;;
81298;SDS011;70766;53.170;18.160;2024-02-23T19:16:17;13.30;;;5.70;;
81298;SDS011;70766;53.170;18.160;2024-02-23T19:18:47;13.20;;;5.70;;
81298;SDS011;70766;53.170;18.160;2024-02-23T19:21:15;18.40;;;6.70;;
81298;SDS011;70766;53.170;18.160;2024-02-23T19:23:43;17.20;;;6.50;;
81298;SDS011;70766;53.170;18.160;2024-02-23T19:26:12;14.20;;;5.40;;
81298;SDS011;70766;53.170;18.160;2024-02-23T19:28:41;16.30;;;6.80;;
81298;SDS011;70766;53.170;18.160;2024-02-23T19:31:10;15.90;;;6.70;;
81298;SDS011;70766;53.170;18.160;2024-02-23T19:33:38;14.60;;;6.10;;
81298;SDS011;70766;53.170;18.160;2024-02-23T19:36:07;14.10;;;5.20;;
81298;SDS011;70766;53.170;18.160;2024-02-23T19:38:38;12.90;;;5.40;;
81298;SDS011;70766;53.170;18.160;2024-02-23T19:41:06;10.80;;;4.60;;
81298;SDS011;70766;53.170;18.160;2024-02-23T19:43:34;13.90;;;5.20;;
81298;SDS011;70766;53.170;18.160;2024-02-23T19:46:03;16.00;;;6.30;;
81298;SDS011;70766;53.170;18.160;2024-02-23T19:48:46;15.60;;;5.90;;
81298;SDS011;70766;53.170;18.160;2024-02-23T19:51:15;39.80;;;13.40;;
81298;SDS011;70766;53.170;18.160;2024-02-23T19:53:43;34.70;;;11.90;;
81298;SDS011;70766;53.170;18.160;2024-02-23T19:56:12;46.70;;;13.90;;
81298;SDS011;70766;53.170;18.160;2024-02-23T19:58:42;43.80;;;13.20;;
81298;SDS011;70766;53.170;18.160;2024-02-23T20:01:13;43.10;;;12.60;;
81298;SDS011;70766;53.170;18.160;2024-02-23T20:03:42;36.70;;;11.20;;
81298;SDS011;70766;53.170;18.160;2024-02-23T20:06:10;40.30;;;12.60;;
81298;SDS011;70766;53.170;18.160;2024-02-23T20:08:44;39.80;;;11.90;;
81298;SDS011;70766;53.170;18.160;2024-02-23T20:11:12;27.50;;;9.90;;
81298;SDS011;70766;53.170;18.160;2024-02-23T20:13:41;30.50;;;10.60;;
81298;SDS011;70766;53.170;18.160;2024-02-23T20:16:10;27.60;;;9.20;;
81298;SDS011;70766;53.170;18.160;2024-02-23T20:18:39;25.00;;;7.90;;
81298;SDS011;70766;53.170;18.160;2024-02-23T20:21:07;31.30;;;10.00;;
81298;SDS011;70766;53.170;18.160;2024-02-23T20:23:36;24.10;;;8.60;;
81298;SDS011;70766;53.170;18.160;2024-02-23T20:26:04;25.20;;;8.30;;
81298;SDS011;70766;53.170;18.160;2024-02-23T20:28:33;19.40;;;7.20;;
81298;SDS011;70766;53.170;18.160;2024-02-23T20:31:02;20.70;;;8.40;;
81298;SDS011;70766;53.170;18.160;2024-02-23T20:33:34;21.80;;;8.40;;
81298;SDS011;70766;53.170;18.160;2024-02-23T20:36:03;18.40;;;7.60;;
81298;SDS011;70766;53.170;18.160;2024-02-23T20:38:31;16.20;;;6.90;;
81298;SDS011;70766;53.170;18.160;2024-02-23T20:41:00;18.40;;;7.70;;
81298;SDS011;70766;53.170;18.160;2024-02-23T20:43:28;22.90;;;9.00;;
81298;SDS011;70766;53.170;18.160;2024-02-23T20:45:57;28.40;;;11.10;;
81298;SDS011;70766;53.170;18.160;2024-02-23T20:48:27;24.70;;;10.40;;
81298;SDS011;70766;53.170;18.160;2024-02-23T20:50:55;20.30;;;8.50;;
81298;SDS011;70766;53.170;18.160;2024-02-23T20:53:24;23.30;;;9.50;;
81298;SDS011;70766;53.170;18.160;2024-02-23T20:55:52;138.60;;;36.30;;
81298;SDS011;70766;53.170;18.160;2024-02-23T20:58:21;41.30;;;14.70;;
81298;SDS011;70766;53.170;18.160;2024-02-23T21:00:49;114.60;;;33.80;;
81298;SDS011;70766;53.170;18.160;2024-02-23T21:03:18;64.50;;;21.10;;
81298;SDS011;70766;53.170;18.160;2024-02-23T21:05:49;38.70;;;13.80;;
81298;SDS011;70766;53.170;18.160;2024-02-23T21:08:18;36.20;;;13.00;;
81298;SDS011;70766;53.170;18.160;2024-02-23T21:10:46;36.20;;;14.20;;
81298;SDS011;70766;53.170;18.160;2024-02-23T21:13:17;29.50;;;11.20;;
81298;SDS011;70766;53.170;18.160;2024-02-23T21:15:45;48.90;;;18.50;;
81298;SDS011;70766;53.170;18.160;2024-02-23T21:18:14;27.40;;;10.60;;
81298;SDS011;70766;53.170;18.160;2024-02-23T21:20:46;30.90;;;11.50;;
81298;SDS011;70766;53.170;18.160;2024-02-23T21:23:17;27.50;;;10.80;;
81298;SDS011;70766;53.170;18.160;2024-02-23T21:25:46;26.90;;;10.60;;
81298;SDS011;70766;53.170;18.160;2024-02-23T21:28:14;23.30;;;10.10;;
81298;SDS011;70766;53.170;18.160;2024-02-23T21:30:45;31.60;;;12.30;;
81298;SDS011;70766;53.170;18.160;2024-02-23T21:33:21;26.00;;;10.40;;
81298;SDS011;70766;53.170;18.160;2024-02-23T21:35:50;23.70;;;9.90;;
81298;SDS011;70766;53.170;18.160;2024-02-23T21:38:18;25.00;;;9.10;;
81298;SDS011;70766;53.170;18.160;2024-02-23T21:40:46;21.00;;;8.80;;
81298;SDS011;70766;53.170;18.160;2024-02-23T21:43:15;22.30;;;9.50;;
81298;SDS011;70766;53.170;18.160;2024-02-23T21:45:43;24.90;;;10.10;;
81298;SDS011;70766;53.170;18.160;2024-02-23T21:48:11;29.40;;;11.30;;
81298;SDS011;70766;53.170;18.160;2024-02-23T21:50:40;24.30;;;9.10;;
81298;SDS011;70766;53.170;18.160;2024-02-23T21:53:08;25.70;;;9.30;;
81298;SDS011;70766;53.170;18.160;2024-02-23T21:55:37;23.50;;;9.50;;
81298;SDS011;70766;53.170;18.160;2024-02-23T21:58:05;24.00;;;8.90;;
81298;SDS011;70766;53.170;18.160;2024-02-23T22:00:33;23.80;;;9.70;;
81298;SDS011;70766;53.170;18.160;2024-02-23T22:03:01;22.40;;;9.00;;
81298;SDS011;70766;53.170;18.160;2024-02-23T22:05:33;30.30;;;11.80;;
81298;SDS011;70766;53.170;18.160;2024-02-23T22:08:01;24.90;;;9.90;;
81298;SDS011;70766;53.170;18.160;2024-02-23T22:10:29;27.30;;;10.10;;
81298;SDS011;70766;53.170;18.160;2024-02-23T22:12:58;24.10;;;10.00;;
81298;SDS011;70766;53.170;18.160;2024-02-23T22:15:26;21.00;;;8.60;;
81298;SDS011;70766;53.170;18.160;2024-02-23T22:17:55;22.40;;;8.90;;
81298;SDS011;70766;53.170;18.160;2024-02-23T22:20:23;20.80;;;8.60;;
81298;SDS011;70766;53.170;18.160;2024-02-23T22:22:51;24.90;;;9.20;;
81298;SDS011;70766;53.170;18.160;2024-02-23T22:25:19;22.90;;;9.00;;
81298;SDS011;70766;53.170;18.160;2024-02-23T22:27:48;18.50;;;8.00;;
81298;SDS011;70766;53.170;18.160;2024-02-23T22:30:16;19.60;;;8.50;;
81298;SDS011;70766;53.170;18.160;2024-02-23T22:32:44;23.70;;;10.20;;
81298;SDS011;70766;53.170;18.160;2024-02-23T22:35:13;24.80;;;9.90;;
81298;SDS011;70766;53.170;18.160;2024-02-23T22:37:41;17.70;;;7.60;;
81298;SDS011;70766;53.170;18.160;2024-02-23T22:40:10;18.70;;;8.20;;
81298;SDS011;70766;53.170;18.160;2024-02-23T22:42:41;20.80;;;7.80;;
81298;SDS011;70766;53.170;18.160;2024-02-23T22:45:09;66.10;;;17.80;;
81298;SDS011;70766;53.170;18.160;2024-02-23T22:47:39;52.20;;;16.00;;
81298;SDS011;70766;53.170;18.160;2024-02-23T22:50:08;53.30;;;15.90;;
81298;SDS011;70766;53.170;18.160;2024-02-23T22:52:36;29.00;;;11.20;;
81298;SDS011;70766;53.170;18.160;2024-02-23T22:55:04;31.20;;;11.50;;
81298;SDS011;70766;53.170;18.160;2024-02-23T22:57:33;66.80;;;20.70;;
81298;SDS011;70766;53.170;18.160;2024-02-23T23:00:02;45.00;;;15.90;;
81298;SDS011;70766;53.170;18.160;2024-02-23T23:02:31;31.30;;;11.30;;
81298;SDS011;70766;53.170;18.160;2024-02-23T23:05:00;23.60;;;9.80;;
81298;SDS011;70766;53.170;18.160;2024-02-23T23:07:29;20.90;;;8.90;;
81298;SDS011;70766;53.170;18.160;2024-02-23T23:09:59;23.40;;;8.60;;
81298;SDS011;70766;53.170;18.160;2024-02-23T23:12:27;94.10;;;33.90;;
81298;SDS011;70766;53.170;18.160;2024-02-23T23:14:55;33.00;;;13.20;;
81298;SDS011;70766;53.170;18.160;2024-02-23T23:17:23;25.80;;;10.00;;
81298;SDS011;70766;53.170;18.160;2024-02-23T23:19:52;22.40;;;9.40;;
81298;SDS011;70766;53.170;18.160;2024-02-23T23:22:20;19.50;;;8.70;;
81298;SDS011;70766;53.170;18.160;2024-02-23T23:24:48;21.30;;;8.60;;
81298;SDS011;70766;53.170;18.160;2024-02-23T23:27:17;22.00;;;8.70;;
81298;SDS011;70766;53.170;18.160;2024-02-23T23:29:45;21.10;;;8.70;;
81298;SDS011;70766;53.170;18.160;2024-02-23T23:32:13;18.80;;;7.70;;
81298;SDS011;70766;53.170;18.160;2024-02-23T23:34:42;18.50;;;8.10;;
81298;SDS011;70766;53.170;18.160;2024-02-23T23:37:10;17.50;;;7.50;;
81298;SDS011;70766;53.170;18.160;2024-02-23T23:39:38;15.90;;;6.40;;
81298;SDS011;70766;53.170;18.160;2024-02-23T23:42:06;22.60;;;8.70;;
81298;SDS011;70766;53.170;18.160;2024-02-23T23:44:34;25.60;;;10.00;;
81298;SDS011;70766;53.170;18.160;2024-02-23T23:47:03;22.60;;;8.80;;
81298;SDS011;70766;53.170;18.160;2024-02-23T23:49:31;21.50;;;8.90;;
81298;SDS011;70766;53.170;18.160;2024-02-23T23:51:59;21.20;;;8.70;;
81298;SDS011;70766;53.170;18.160;2024-02-23T23:54:32;24.80;;;9.70;;
81298;SDS011;70766;53.170;18.160;2024-02-23T23:57:00;29.30;;;11.40;;
81298;SDS011;70766;53.170;18.160;2024-02-23T23:59:28;25.10;;;9.90;;
